Terminal Aerodrome Forecast
Issued by NWS Duluth, MN

Home | Current Version | Previous Version | Text Only | Print | Product List | Glossary On
Versions: 1 2 3 4 5 6 7 8 9 10 11 12 13 14 15 16 17 18 19 20 21 22 23 24 25 26
000
FTUS43 KDLH 290523
TAFINL
TAF
KINL 290523Z 2906/3006 14015G20KT P6SM -RA VCTS OVC100CB
     FM290800 14004KT 5SM BR VCTS SCT025 BKN050CB OVC080
     FM291000 17005KT 1SM BR SCT010 BKN020
     FM291600 27008KT P6SM BKN015 OVC050
     FM291900 29009KT P6SM SCT050 BKN150
     FM292300 30007KT P6SM SKC=

USA.gov is the U.S. government's official web portal to all federal, state and local government web resources and services.